createdAt,value
2018-12-23T00:02:10.750Z,11.23
2018-12-23T00:05:13.721Z,12.37
2018-12-23T00:08:16.766Z,11.57
2018-12-23T00:11:20.779Z,11.37
2018-12-23T00:14:23.744Z,10.80
2018-12-23T00:17:26.707Z,12.13
2018-12-23T00:20:29.674Z,11.40
2018-12-23T00:23:34.393Z,11.70
2018-12-23T00:26:37.353Z,12.93
2018-12-23T00:29:40.310Z,13.13
2018-12-23T00:32:44.478Z,13.33
2018-12-23T00:35:47.434Z,13.60
2018-12-23T00:38:50.393Z,12.97
2018-12-23T00:41:53.360Z,10.73
2018-12-23T00:44:56.314Z,11.27
2018-12-23T00:47:59.326Z,11.97
2018-12-23T00:51:02.284Z,11.63
2018-12-23T00:54:05.303Z,10.37
2018-12-23T00:57:08.270Z,11.20
2018-12-23T01:00:11.546Z,10.67
2018-12-23T01:03:14.509Z,10.50
2018-12-23T01:06:17.488Z,11.70
2018-12-23T01:09:20.992Z,11.40
2018-12-23T01:12:23.963Z,11.63
2018-12-23T01:15:26.932Z,11.70
2018-12-23T01:18:29.893Z,10.07
2018-12-23T01:21:32.842Z,10.87
2018-12-23T01:24:35.802Z,11.17
2018-12-23T01:27:38.827Z,10.70
2018-12-23T01:30:41.785Z,10.40
2018-12-23T01:33:44.738Z,10.43
2018-12-23T01:36:47.690Z,11.07
2018-12-23T01:39:50.656Z,12.50
2018-12-23T01:42:53.610Z,11.03
2018-12-23T01:45:56.565Z,12.17
2018-12-23T01:48:59.509Z,12.63
2018-12-23T01:52:02.535Z,12.93
2018-12-23T01:55:05.577Z,14.53
2018-12-23T01:58:08.685Z,14.77
2018-12-23T02:01:11.625Z,15.20
2018-12-23T02:04:14.630Z,14.00
2018-12-23T02:07:17.579Z,13.60
2018-12-23T02:10:20.638Z,14.83
2018-12-23T02:13:23.598Z,14.20
2018-12-23T02:16:26.603Z,14.87
2018-12-23T02:19:30.791Z,12.90
2018-12-23T02:22:34.375Z,13.90
2018-12-23T02:25:37.346Z,14.23
2018-12-23T02:28:40.328Z,14.47
2018-12-23T02:31:43.270Z,16.53
2018-12-23T02:34:46.329Z,15.37
2018-12-23T02:37:49.838Z,15.87
2018-12-23T02:40:52.842Z,16.97
2018-12-23T02:43:55.798Z,16.87
2018-12-23T02:46:58.878Z,15.43
2018-12-23T02:50:01.898Z,16.73
2018-12-23T02:53:04.955Z,15.93
2018-12-23T02:56:07.946Z,16.67
2018-12-23T02:59:10.930Z,17.17
2018-12-23T03:02:13.971Z,17.53
2018-12-23T03:05:16.970Z,17.50
2018-12-23T03:08:19.948Z,17.97
2018-12-23T03:11:22.935Z,17.07
2018-12-23T03:14:25.899Z,17.60
2018-12-23T03:17:28.938Z,16.43
2018-12-23T03:20:31.897Z,15.27
2018-12-23T03:23:34.893Z,14.63
2018-12-23T03:26:38.038Z,15.23
2018-12-23T03:29:41.053Z,15.37
2018-12-23T03:32:44.021Z,15.17
2018-12-23T03:35:47.053Z,14.97
2018-12-23T03:38:50.006Z,17.40
2018-12-23T03:41:53.135Z,15.67
2018-12-23T03:44:56.137Z,18.07
2018-12-23T03:47:59.130Z,18.57
2018-12-23T03:51:02.082Z,17.10
2018-12-23T03:54:05.166Z,19.97
2018-12-23T03:57:08.139Z,18.60
2018-12-23T04:00:11.138Z,16.87
2018-12-23T04:03:14.265Z,14.90
2018-12-23T04:06:24.413Z,16.70
2018-12-23T04:09:22.806Z,16.90
2018-12-23T04:12:26.034Z,17.90
2018-12-23T04:15:29.346Z,16.10
2018-12-23T04:18:32.526Z,17.33
2018-12-23T04:21:35.690Z,17.73
2018-12-23T04:24:38.872Z,16.73
2018-12-23T04:27:42.079Z,16.63
2018-12-23T04:30:45.273Z,16.07
2018-12-23T04:33:48.469Z,15.07
2018-12-23T04:36:51.663Z,14.47
2018-12-23T04:39:54.862Z,16.07
2018-12-23T04:42:58.053Z,15.77
2018-12-23T04:46:01.254Z,16.37
2018-12-23T04:49:04.955Z,16.50
2018-12-23T04:52:08.149Z,15.90
2018-12-23T04:55:11.345Z,16.07
2018-12-23T04:58:14.543Z,15.80
2018-12-23T05:01:17.712Z,15.67
2018-12-23T05:04:20.934Z,12.60
2018-12-23T05:07:24.140Z,15.50
2018-12-23T05:10:27.428Z,14.77
2018-12-23T05:13:30.620Z,15.03
2018-12-23T05:16:33.816Z,14.63
2018-12-23T05:19:37.009Z,14.10
2018-12-23T05:22:40.206Z,11.13
2018-12-23T05:25:43.398Z,13.57
2018-12-23T05:28:46.596Z,13.20
2018-12-23T05:31:49.789Z,11.97
2018-12-23T05:34:53.702Z,11.73
2018-12-23T05:37:56.901Z,11.80
2018-12-23T05:41:00.096Z,11.70
2018-12-23T05:44:03.290Z,10.93
2018-12-23T05:47:06.485Z,10.87
2018-12-23T05:50:09.678Z,11.73
2018-12-23T05:53:12.874Z,10.50
2018-12-23T05:56:16.066Z,11.70
2018-12-23T05:59:19.266Z,12.30
2018-12-23T06:02:22.557Z,11.37
2018-12-23T06:05:25.757Z,11.43
2018-12-23T06:08:28.950Z,11.93
2018-12-23T06:11:32.146Z,11.37
2018-12-23T06:14:35.336Z,11.00
2018-12-23T06:17:38.686Z,12.75
2018-12-23T06:20:41.829Z,13.37
2018-12-23T06:23:45.026Z,13.07
2018-12-23T06:26:48.221Z,14.20
2018-12-23T06:29:51.422Z,10.40
2018-12-23T06:32:54.592Z,15.17
2018-12-23T06:35:57.706Z,15.10
2018-12-23T06:39:00.903Z,16.63
2018-12-23T06:42:04.199Z,13.30
2018-12-23T06:45:07.496Z,14.93
2018-12-23T06:48:10.691Z,15.73
2018-12-23T06:51:13.885Z,13.80
2018-12-23T06:54:17.059Z,12.97
2018-12-23T06:57:20.278Z,10.33
2018-12-23T07:00:23.574Z,15.00
2018-12-23T07:03:26.766Z,16.33
2018-12-23T07:06:29.969Z,14.63
2018-12-23T07:09:33.158Z,14.57
2018-12-23T07:12:36.353Z,12.90
2018-12-23T07:15:39.550Z,14.67
2018-12-23T07:18:42.748Z,16.03
2018-12-23T07:21:45.980Z,14.37
2018-12-23T07:24:49.233Z,13.07
2018-12-23T07:27:52.434Z,14.50
2018-12-23T07:30:55.626Z,14.10
2018-12-23T07:33:58.823Z,12.90
2018-12-23T07:37:02.019Z,14.63
2018-12-23T07:40:05.314Z,13.83
2018-12-23T07:43:08.513Z,13.77
2018-12-23T07:46:11.705Z,14.03
2018-12-23T07:49:15.054Z,13.63
2018-12-23T07:52:18.201Z,14.30
2018-12-23T07:55:21.648Z,13.60
2018-12-23T07:58:24.790Z,13.60
2018-12-23T08:01:28.017Z,11.93
2018-12-23T08:04:31.181Z,11.40
2018-12-23T08:07:36.296Z,13.50
2018-12-23T08:10:39.829Z,13.63
2018-12-23T08:13:43.050Z,12.43
2018-12-23T08:16:46.214Z,11.00
2018-12-23T08:19:49.446Z,12.93
2018-12-23T08:22:52.607Z,11.77
2018-12-23T08:25:55.829Z,13.37
2018-12-23T08:28:58.994Z,11.97
2018-12-23T08:32:02.339Z,14.30
2018-12-23T08:35:05.486Z,13.83
2018-12-23T08:38:08.709Z,11.93
2018-12-23T08:41:11.877Z,12.80
2018-12-23T08:44:15.757Z,11.70
2018-12-23T08:47:18.881Z,11.57
2018-12-23T08:50:22.111Z,14.07
2018-12-23T08:53:25.273Z,11.27
2018-12-23T08:56:28.618Z,12.20
2018-12-23T08:59:31.766Z,11.00
2018-12-23T09:02:34.994Z,5.77
2018-12-23T09:05:38.158Z,10.07
2018-12-23T09:08:41.610Z,10.43
2018-12-23T09:11:45.059Z,9.90
2018-12-23T09:14:48.286Z,8.63
2018-12-23T09:17:51.459Z,8.90
2018-12-23T09:20:54.974Z,6.47
2018-12-23T09:23:58.146Z,9.87
2018-12-23T09:27:01.370Z,10.90
2018-12-23T09:30:05.457Z,10.70
2018-12-23T09:33:08.801Z,8.87
2018-12-23T09:36:11.949Z,9.87
2018-12-23T09:39:15.277Z,10.37
2018-12-23T09:42:18.442Z,9.47
2018-12-23T09:45:21.674Z,10.07
2018-12-23T09:48:24.830Z,8.83
2018-12-23T09:51:28.058Z,8.70
2018-12-23T09:54:31.222Z,7.93
2018-12-23T09:57:34.570Z,8.60
2018-12-23T10:00:37.717Z,8.80
2018-12-23T10:03:40.954Z,8.10
2018-12-23T10:06:44.179Z,8.40
2018-12-23T10:09:47.496Z,8.17
2018-12-23T10:12:50.475Z,9.90
2018-12-23T10:15:53.554Z,8.37
2018-12-23T10:18:56.530Z,9.20
2018-12-23T10:21:59.527Z,9.13
2018-12-23T10:25:02.639Z,8.00
2018-12-23T10:28:05.611Z,7.50
2018-12-23T10:31:08.578Z,5.97
2018-12-23T10:34:11.613Z,7.27
2018-12-23T10:37:14.587Z,6.10
2018-12-23T10:40:17.559Z,6.55
2018-12-23T10:43:20.659Z,6.85
2018-12-23T10:46:23.667Z,7.12
2018-12-23T10:49:26.717Z,7.23
2018-12-23T10:52:29.685Z,6.80
2018-12-23T10:55:32.687Z,7.00
2018-12-23T10:58:35.678Z,5.80
2018-12-23T11:01:38.696Z,6.03
2018-12-23T11:04:41.666Z,6.17
2018-12-23T11:07:44.671Z,6.33
2018-12-23T11:10:47.718Z,6.17
2018-12-23T11:13:50.855Z,5.33
2018-12-23T11:16:53.824Z,6.43
2018-12-23T11:19:56.818Z,6.00
2018-12-23T11:22:59.796Z,5.87
2018-12-23T11:26:02.944Z,6.40
2018-12-23T11:29:05.911Z,5.90
2018-12-23T11:32:09.375Z,5.20
2018-12-23T11:35:13.467Z,5.17
2018-12-23T11:38:17.272Z,4.80
2018-12-23T11:41:20.383Z,4.87
2018-12-23T11:44:23.360Z,4.80
2018-12-23T11:47:26.371Z,5.33
2018-12-23T11:50:29.340Z,4.33
2018-12-23T11:53:32.307Z,5.55
2018-12-23T11:56:35.483Z,5.67
2018-12-23T11:59:38.999Z,4.97
2018-12-23T12:02:45.678Z,5.30
2018-12-23T12:05:48.875Z,5.30
2018-12-23T12:08:52.172Z,4.97
2018-12-23T12:11:55.363Z,4.50
2018-12-23T12:14:58.555Z,4.90
2018-12-23T12:18:01.856Z,4.80
2018-12-23T12:21:05.043Z,5.10
2018-12-23T12:24:08.246Z,5.10
2018-12-23T12:27:11.439Z,4.73
2018-12-23T12:30:14.838Z,5.13
2018-12-23T12:33:18.036Z,4.77
2018-12-23T12:36:21.232Z,3.77
2018-12-23T12:39:24.427Z,5.00
2018-12-23T12:42:27.615Z,3.93
2018-12-23T12:45:30.814Z,3.73
2018-12-23T12:48:34.015Z,4.83
2018-12-23T12:51:37.291Z,5.00
2018-12-23T12:54:40.509Z,5.00
2018-12-23T12:57:43.794Z,4.87
2018-12-23T13:00:46.995Z,5.60
2018-12-23T13:03:50.417Z,4.73
2018-12-23T13:06:53.592Z,5.35
2018-12-23T13:09:56.778Z,5.00
2018-12-23T13:13:00.592Z,4.83
2018-12-23T13:16:03.890Z,5.23
2018-12-23T13:19:07.088Z,5.20
2018-12-23T13:22:10.285Z,5.20
2018-12-23T13:25:13.468Z,5.17
2018-12-23T13:28:16.666Z,5.53
2018-12-23T13:31:19.963Z,5.20
2018-12-23T13:34:23.307Z,4.53
2018-12-23T13:37:26.583Z,4.43
2018-12-23T13:40:46.982Z,5.53
2018-12-23T13:44:15.030Z,5.13
2018-12-23T13:47:33.312Z,5.23
2018-12-23T13:52:57.230Z,5.70
2018-12-23T13:58:15.599Z,5.03
2018-12-23T14:01:29.892Z,5.03
2018-12-23T14:05:46.107Z,4.53
2018-12-23T14:08:58.198Z,4.87
2018-12-23T14:12:01.407Z,4.73
2018-12-23T14:15:04.791Z,5.13
2018-12-23T14:18:08.026Z,5.13
2018-12-23T14:21:11.183Z,4.53
2018-12-23T14:24:14.410Z,5.40
2018-12-23T14:27:17.566Z,5.77
2018-12-23T14:30:20.771Z,5.20
2018-12-23T14:33:24.034Z,6.13
2018-12-23T14:36:27.263Z,5.63
2018-12-23T14:39:30.482Z,5.90
2018-12-23T14:42:33.652Z,5.60
2018-12-23T14:45:36.878Z,5.93
2018-12-23T14:48:40.039Z,6.05
2018-12-23T14:51:43.470Z,5.67
2018-12-23T14:54:46.735Z,6.50
2018-12-23T14:57:49.966Z,5.92
2018-12-23T15:00:53.104Z,6.07
2018-12-23T15:03:56.395Z,5.87
2018-12-23T15:07:00.643Z,6.10
2018-12-23T15:10:04.291Z,7.13
2018-12-23T15:13:08.590Z,6.53
2018-12-23T15:16:11.894Z,7.20
2018-12-23T15:19:15.262Z,6.77
2018-12-23T15:22:18.503Z,7.23
2018-12-23T15:25:21.655Z,7.10
2018-12-23T15:28:24.879Z,7.20
2018-12-23T15:31:28.042Z,6.37
2018-12-23T15:34:31.239Z,6.33
2018-12-23T15:37:35.275Z,7.77
2018-12-23T15:40:38.446Z,7.53
2018-12-23T15:43:41.707Z,7.90
2018-12-23T15:46:45.023Z,7.87
2018-12-23T15:49:48.383Z,8.90
2018-12-23T15:52:52.700Z,10.20
2018-12-23T15:55:55.890Z,11.97
2018-12-23T15:58:59.251Z,16.43
2018-12-23T16:02:02.447Z,16.80
2018-12-23T16:05:05.662Z,8.83
2018-12-23T16:08:08.957Z,6.37
2018-12-23T16:11:12.158Z,6.50
2018-12-23T16:14:15.452Z,6.63
2018-12-23T16:17:18.641Z,7.17
2018-12-23T16:20:22.021Z,8.00
2018-12-23T16:23:25.238Z,7.83
2018-12-23T16:26:29.076Z,10.13
2018-12-23T16:29:32.351Z,11.87
2018-12-23T16:32:35.542Z,11.70
2018-12-23T16:35:38.842Z,12.80
2018-12-23T16:38:42.034Z,12.43
2018-12-23T16:41:45.256Z,13.73
2018-12-23T16:44:48.423Z,12.30
2018-12-23T16:47:51.617Z,13.27
2018-12-23T16:50:55.749Z,14.23
2018-12-23T16:53:59.146Z,13.08
2018-12-23T16:57:02.990Z,13.20
2018-12-23T17:00:09.166Z,14.40
2018-12-23T17:03:12.411Z,12.03
2018-12-23T17:06:15.605Z,13.07
2018-12-23T17:09:18.814Z,12.43
2018-12-23T17:12:22.405Z,14.10
2018-12-23T17:15:26.425Z,12.73
2018-12-23T17:18:34.466Z,13.87
2018-12-23T17:21:44.011Z,13.00
2018-12-23T17:24:47.169Z,12.70
2018-12-23T17:27:50.750Z,12.53
2018-12-23T17:30:57.027Z,12.10
2018-12-23T17:34:00.229Z,12.77
2018-12-23T17:37:03.565Z,14.40
2018-12-23T17:40:07.139Z,10.00
2018-12-23T17:43:10.332Z,6.90
2018-12-23T17:46:13.526Z,6.60
2018-12-23T17:49:16.984Z,4.50
2018-12-23T17:52:23.281Z,4.90
2018-12-23T17:55:25.673Z,3.60
2018-12-23T17:58:28.881Z,3.70
2018-12-23T18:01:32.233Z,3.40
2018-12-23T18:04:35.500Z,4.30
2018-12-23T18:07:38.870Z,3.70
2018-12-23T18:10:42.701Z,3.63
2018-12-23T18:13:45.965Z,3.77
2018-12-23T18:16:49.337Z,3.13
2018-12-23T18:19:52.683Z,3.03
2018-12-23T18:22:55.862Z,3.00
2018-12-23T18:25:59.063Z,3.10
2018-12-23T18:29:02.310Z,2.70
2018-12-23T18:32:05.550Z,3.57
2018-12-23T18:35:09.098Z,3.00
2018-12-23T18:38:12.450Z,3.20
2018-12-23T18:41:15.835Z,2.80
2018-12-23T18:44:21.378Z,2.90
2018-12-23T18:47:24.926Z,3.37
2018-12-23T18:50:28.306Z,3.17
2018-12-23T18:53:31.498Z,3.70
2018-12-23T18:56:39.070Z,3.00
2018-12-23T18:59:45.138Z,3.77
2018-12-23T19:02:51.527Z,3.93
2018-12-23T19:05:54.826Z,4.53
2018-12-23T19:09:07.106Z,4.70
2018-12-23T19:12:22.570Z,4.43
2018-12-23T19:15:38.509Z,4.33
2018-12-23T19:18:55.750Z,3.60
2018-12-23T19:24:19.146Z,4.00
2018-12-23T19:27:33.818Z,4.03
2018-12-23T19:30:50.074Z,3.87
2018-12-23T19:34:43.966Z,3.60
2018-12-23T19:38:28.049Z,3.27
2018-12-23T19:41:43.043Z,2.93
2018-12-23T19:47:04.674Z,3.17
2018-12-23T19:50:19.634Z,2.97
2018-12-23T19:53:45.530Z,2.83
2018-12-23T19:57:02.449Z,2.80
2018-12-23T20:01:15.529Z,2.63
2018-12-23T20:04:32.396Z,3.03
2018-12-23T20:07:51.330Z,2.20
2018-12-23T20:11:11.250Z,2.10
2018-12-23T20:14:36.361Z,2.10
2018-12-23T20:17:53.409Z,2.73
2018-12-23T20:22:14.294Z,3.10
2018-12-23T20:26:29.169Z,2.57
2018-12-23T20:29:44.345Z,2.40
2018-12-23T20:33:08.378Z,2.23
2018-12-23T20:37:21.565Z,2.70
2018-12-23T20:42:48.875Z,2.80
2018-12-23T20:46:03.823Z,2.27
2018-12-23T20:49:39.877Z,2.80
2018-12-23T20:53:08.058Z,3.10
2018-12-23T20:56:39.926Z,3.17
2018-12-23T21:00:11.382Z,2.20
2018-12-23T21:03:40.873Z,1.90
2018-12-23T21:06:56.894Z,2.73
2018-12-23T21:11:15.946Z,2.40
2018-12-23T21:14:30.013Z,2.67
2018-12-23T21:17:44.368Z,2.63
2018-12-23T21:20:58.658Z,2.63
2018-12-23T21:24:19.987Z,2.67
2018-12-23T21:27:35.952Z,3.07
2018-12-23T21:31:04.533Z,2.87
2018-12-23T21:34:18.578Z,2.97
2018-12-23T21:37:44.406Z,2.57
2018-12-23T21:41:35.813Z,3.00
2018-12-23T21:44:58.454Z,2.60
2018-12-23T21:48:13.049Z,2.73
2018-12-23T21:51:41.240Z,2.80
2018-12-23T21:54:56.004Z,2.83
2018-12-23T21:58:10.042Z,2.80
2018-12-23T22:03:28.406Z,2.70
2018-12-23T22:07:42.185Z,3.23
2018-12-23T22:11:33.280Z,2.37
2018-12-23T22:14:36.546Z,1.93
2018-12-23T22:17:39.528Z,1.70
2018-12-23T22:20:42.470Z,2.30
2018-12-23T22:23:45.845Z,1.80
2018-12-23T22:26:48.788Z,1.70
2018-12-23T22:29:51.771Z,1.90
2018-12-23T22:32:54.714Z,2.20
2018-12-23T22:35:57.678Z,3.03
2018-12-23T22:39:00.662Z,2.50
2018-12-23T22:42:03.627Z,3.27
2018-12-23T22:45:06.695Z,3.67
2018-12-23T22:48:09.838Z,3.00
2018-12-23T22:51:12.790Z,2.27
2018-12-23T22:54:15.755Z,2.50
2018-12-23T22:57:18.832Z,3.07
2018-12-23T23:00:27.342Z,3.47
2018-12-23T23:03:30.332Z,4.83
2018-12-23T23:06:33.473Z,6.03
2018-12-23T23:09:36.447Z,7.40
2018-12-23T23:12:39.485Z,8.87
2018-12-23T23:15:42.486Z,8.57
2018-12-23T23:18:45.538Z,10.70
2018-12-23T23:21:48.553Z,10.07
2018-12-23T23:24:51.504Z,10.17
2018-12-23T23:27:54.530Z,10.30
2018-12-23T23:30:57.470Z,11.17
2018-12-23T23:34:00.435Z,11.77
2018-12-23T23:37:03.397Z,10.93
2018-12-23T23:40:06.373Z,10.20
2018-12-23T23:43:10.209Z,9.53
2018-12-23T23:46:13.276Z,9.70
2018-12-23T23:49:16.206Z,9.00
2018-12-23T23:52:19.158Z,8.70
2018-12-23T23:55:22.095Z,8.10
2018-12-23T23:58:25.014Z,8.13
